Time;durP1;ratioP1;P1;durP2;ratioP2;P2;SDS_P1;SDS_P2;PMS_P1;PMS_P2;Temp;Humidity;BMP_temperature;BMP_pressure;BME280_temperature;BME280_humidity;BME280_pressure;Samples;Min_cycle;Max_cycle;Signal;HPM_P1;HPM_P2
2022/03/09 00:01:38;;;;;;;16.10;8.80;;;4.30;17.30;;;;;;4912987;29;20430;-75
2022/03/09 00:04:04;;;;;;;14.40;8.35;;;4.20;17.40;;;;;;4914455;29;20782;-74
2022/03/09 00:06:30;;;;;;;14.45;9.10;;;4.00;17.70;;;;;;4923469;29;20508;-74
2022/03/09 00:08:56;;;;;;;14.43;8.60;;;4.00;18.20;;;;;;4909387;29;20421;-74
2022/03/09 00:11:21;;;;;;;19.43;9.47;;;4.10;18.60;;;;;;4918957;29;21886;-74
2022/03/09 00:13:47;;;;;;;13.30;8.47;;;4.10;18.10;;;;;;4914018;29;20914;-74
2022/03/09 00:16:12;;;;;;;19.50;8.90;;;4.10;18.30;;;;;;4915038;29;20424;-74
2022/03/09 00:18:38;;;;;;;14.65;9.02;;;4.00;17.90;;;;;;4908829;29;20495;-74
2022/03/09 00:21:03;;;;;;;13.27;8.50;;;3.90;18.00;;;;;;4913121;29;20492;-74
2022/03/09 00:23:29;;;;;;;20.40;9.05;;;3.80;17.90;;;;;;4911835;29;20449;-73
2022/03/09 00:25:55;;;;;;;15.13;9.18;;;3.70;18.40;;;;;;4912839;29;20422;-73
2022/03/09 00:28:20;;;;;;;14.50;8.55;;;3.60;18.10;;;;;;4912298;29;20417;-73
2022/03/09 00:30:46;;;;;;;15.20;8.70;;;3.60;18.60;;;;;;4913548;29;20413;-74
2022/03/09 00:33:11;;;;;;;13.93;8.30;;;3.60;18.30;;;;;;4913461;29;20419;-73
2022/03/09 00:35:38;;;;;;;15.30;8.80;;;3.60;18.30;;;;;;4915044;29;20427;-73
2022/03/09 00:38:05;;;;;;;13.90;8.73;;;3.60;18.20;;;;;;4915378;29;20770;-73
2022/03/09 00:40:30;;;;;;;15.35;8.93;;;3.60;18.50;;;;;;4918338;29;20445;-73
2022/03/09 00:42:56;;;;;;;15.13;9.00;;;3.50;18.70;;;;;;4924868;28;20417;-73
2022/03/09 00:45:21;;;;;;;13.70;8.30;;;3.60;19.00;;;;;;4916985;28;20424;-73
2022/03/09 00:47:47;;;;;;;15.90;8.43;;;3.60;18.60;;;;;;4916444;29;20410;-72
2022/03/09 00:50:13;;;;;;;14.87;7.53;;;3.60;18.70;;;;;;4917199;29;20536;-73
2022/03/09 00:52:38;;;;;;;11.57;7.45;;;3.60;18.20;;;;;;4910020;29;20409;-73
2022/03/09 00:55:05;;;;;;;14.30;7.80;;;3.70;17.80;;;;;;4894851;29;20418;-73
2022/03/09 00:57:31;;;;;;;13.02;8.20;;;3.70;17.40;;;;;;4911696;29;20413;-73
2022/03/09 00:59:57;;;;;;;12.60;7.97;;;3.60;17.90;;;;;;4912106;29;20410;-72
2022/03/09 01:02:22;;;;;;;15.10;7.85;;;3.60;17.90;;;;;;4911610;29;20410;-73
2022/03/09 01:04:48;;;;;;;14.47;8.40;;;3.70;17.50;;;;;;4912569;29;20460;-72
2022/03/09 01:07:13;;;;;;;12.80;7.07;;;3.80;16.80;;;;;;4911702;29;20411;-73
2022/03/09 01:09:39;;;;;;;12.20;7.40;;;3.80;17.40;;;;;;4911876;29;20878;-73
2022/03/09 01:12:05;;;;;;;13.60;7.30;;;3.90;16.70;;;;;;4911243;29;20409;-73
2022/03/09 01:14:30;;;;;;;12.95;7.20;;;3.90;16.60;;;;;;4911393;29;20428;-73
2022/03/09 01:16:56;;;;;;;16.08;7.65;;;3.90;17.80;;;;;;4911629;29;20412;-73
2022/03/09 01:19:21;;;;;;;13.53;7.10;;;3.90;17.00;;;;;;4911648;29;20778;-73
2022/03/09 01:21:47;;;;;;;12.17;7.10;;;3.90;16.70;;;;;;4894619;29;20774;-73
2022/03/09 01:24:12;;;;;;;12.43;7.30;;;3.90;17.20;;;;;;4911469;29;20410;-73
2022/03/09 01:26:38;;;;;;;12.80;7.07;;;3.90;17.20;;;;;;4905375;29;20405;-73
2022/03/09 01:29:04;;;;;;;10.00;6.78;;;3.90;17.00;;;;;;4911054;29;20414;-73
2022/03/09 01:31:29;;;;;;;12.23;7.25;;;3.90;17.10;;;;;;4911319;29;20464;-73
2022/03/09 01:33:55;;;;;;;13.52;7.35;;;3.80;17.10;;;;;;4911495;28;20464;-73
2022/03/09 01:36:20;;;;;;;12.80;7.77;;;3.80;17.80;;;;;;4911026;29;20417;-72
2022/03/09 01:38:46;;;;;;;15.93;8.43;;;3.80;17.60;;;;;;4911631;29;20413;-72
2022/03/09 01:41:12;;;;;;;12.03;7.40;;;3.70;17.20;;;;;;4911367;29;20432;-74
2022/03/09 01:43:39;;;;;;;12.90;7.47;;;3.70;17.20;;;;;;4911094;29;20496;-74
2022/03/09 01:46:04;;;;;;;10.52;7.43;;;3.60;17.50;;;;;;4911525;29;20475;-75
2022/03/09 01:48:30;;;;;;;12.70;7.10;;;3.60;17.40;;;;;;4911221;29;20910;-75
2022/03/09 01:50:55;;;;;;;11.63;7.90;;;3.60;17.60;;;;;;4938238;28;20420;-74
2022/03/09 01:53:21;;;;;;;11.53;7.30;;;3.60;17.50;;;;;;4910784;29;20417;-74
2022/03/09 01:55:47;;;;;;;12.48;7.70;;;3.60;18.60;;;;;;4911686;29;20441;-74
2022/03/09 01:58:13;;;;;;;10.90;6.90;;;3.50;17.50;;;;;;4912024;29;20544;-74
2022/03/09 02:00:38;;;;;;;10.63;7.10;;;3.60;17.70;;;;;;4911464;29;20894;-74
2022/03/09 02:03:04;;;;;;;14.48;7.28;;;3.60;17.20;;;;;;4911672;29;20418;-74
2022/03/09 02:05:30;;;;;;;15.55;7.60;;;3.60;17.20;;;;;;4911512;29;20416;-74
2022/03/09 02:10:40;;;;;;;10.05;6.65;;;3.60;17.40;;;;;;4911997;29;20754;-73
2022/03/09 02:13:07;;;;;;;11.65;6.70;;;3.70;17.10;;;;;;4911577;29;20425;-73
2022/03/09 02:15:33;;;;;;;13.20;7.53;;;3.60;17.40;;;;;;4912316;29;21209;-73
2022/03/09 02:18:01;;;;;;;11.73;7.32;;;3.60;17.00;;;;;;4911859;29;20522;-73
2022/03/09 02:20:28;;;;;;;10.65;7.03;;;3.50;17.30;;;;;;4911509;29;20410;-73
2022/03/09 02:22:53;;;;;;;12.82;7.10;;;3.50;17.40;;;;;;4912843;29;20417;-73
2022/03/09 02:25:20;;;;;;;11.70;7.18;;;3.40;17.70;;;;;;4914551;29;20424;-74
2022/03/09 02:27:46;;;;;;;12.50;6.97;;;3.50;17.50;;;;;;4914438;29;20432;-74
2022/03/09 02:30:17;;;;;;;11.52;6.30;;;3.50;17.80;;;;;;4915227;29;20405;-74
2022/03/09 02:32:50;;;;;;;13.30;7.30;;;3.40;17.70;;;;;;4914538;29;20968;-74
2022/03/09 02:35:17;;;;;;;12.83;6.73;;;3.40;18.30;;;;;;4913963;29;20931;-74
2022/03/09 02:37:43;;;;;;;11.52;6.78;;;3.40;17.70;;;;;;4914502;29;20417;-74
2022/03/09 02:40:11;;;;;;;11.95;7.18;;;3.40;18.10;;;;;;4913960;29;20409;-74
2022/03/09 02:42:38;;;;;;;10.63;6.70;;;3.40;17.70;;;;;;4915048;29;20410;-74
2022/03/09 02:45:05;;;;;;;8.75;6.65;;;3.30;17.70;;;;;;4915171;29;20488;-74
2022/03/09 02:47:31;;;;;;;10.30;6.30;;;3.40;17.80;;;;;;4969008;28;20989;-74
2022/03/09 02:49:56;;;;;;;10.63;6.57;;;3.40;17.90;;;;;;4914815;28;20413;-74
2022/03/09 02:52:22;;;;;;;12.60;6.73;;;3.40;17.90;;;;;;4917171;29;20764;-74
2022/03/09 02:54:48;;;;;;;11.20;6.60;;;3.40;18.00;;;;;;4902940;29;20419;-74
2022/03/09 02:57:14;;;;;;;14.90;6.32;;;3.40;17.30;;;;;;4920383;29;20497;-74
2022/03/09 02:59:39;;;;;;;10.73;6.50;;;3.50;17.40;;;;;;4914870;29;20409;-74
2022/03/09 03:02:05;;;;;;;11.60;6.67;;;3.40;17.00;;;;;;4915826;29;20420;-74
2022/03/09 03:04:30;;;;;;;14.85;7.00;;;3.40;17.70;;;;;;4914442;29;20421;-74
2022/03/09 03:06:56;;;;;;;10.70;6.65;;;3.40;17.60;;;;;;4914401;29;20414;-74
2022/03/09 03:09:23;;;;;;;10.98;7.05;;;3.40;17.30;;;;;;4914424;29;20507;-74
2022/03/09 03:11:48;;;;;;;10.95;6.95;;;3.40;17.60;;;;;;4897370;29;20505;-74
2022/03/09 03:14:14;;;;;;;11.30;6.63;;;3.30;18.10;;;;;;4897406;28;20504;-74
2022/03/09 03:16:40;;;;;;;10.40;7.37;;;3.30;18.50;;;;;;4914287;29;20406;-74
2022/03/09 03:19:06;;;;;;;10.10;6.30;;;3.30;17.90;;;;;;4915442;29;20463;-75
2022/03/09 03:21:32;;;;;;;11.23;7.28;;;3.40;18.00;;;;;;4914245;29;20414;-75
2022/03/09 03:23:58;;;;;;;16.35;6.30;;;3.30;17.50;;;;;;4914486;29;20423;-74
2022/03/09 03:26:24;;;;;;;10.13;6.53;;;3.20;17.80;;;;;;4914339;29;20577;-74
2022/03/09 03:28:53;;;;;;;12.40;7.90;;;3.20;17.50;;;;;;4914099;29;20481;-74
2022/03/09 03:31:20;;;;;;;11.73;7.03;;;3.10;18.20;;;;;;4913986;29;20413;-74
2022/03/09 03:33:47;;;;;;;11.35;6.80;;;3.10;17.80;;;;;;4914263;29;20807;-73
2022/03/09 03:36:14;;;;;;;10.43;6.90;;;3.10;17.70;;;;;;4917235;29;20417;-74
2022/03/09 03:38:40;;;;;;;10.20;6.72;;;3.20;18.10;;;;;;4920036;28;20493;-74
2022/03/09 03:41:05;;;;;;;11.60;6.90;;;3.10;17.40;;;;;;4920980;29;20424;-74
2022/03/09 03:43:31;;;;;;;12.40;7.00;;;3.10;17.90;;;;;;4926581;29;20426;-75
2022/03/09 03:45:56;;;;;;;12.53;7.07;;;3.20;18.00;;;;;;4926438;29;20486;-73
2022/03/09 03:48:22;;;;;;;13.80;7.80;;;3.20;17.90;;;;;;4918183;29;20468;-74
2022/03/09 03:50:48;;;;;;;12.73;7.10;;;3.20;17.10;;;;;;4934299;29;20766;-73
2022/03/09 03:53:13;;;;;;;12.20;6.60;;;3.20;17.50;;;;;;4924837;29;20553;-73
2022/03/09 03:55:39;;;;;;;13.02;7.35;;;3.20;17.50;;;;;;4913650;29;20499;-74
2022/03/09 03:58:04;;;;;;;12.93;7.63;;;3.30;17.70;;;;;;4913478;29;20414;-74
2022/03/09 04:00:30;;;;;;;12.80;7.38;;;3.20;17.20;;;;;;4913041;29;20405;-75
2022/03/09 04:02:55;;;;;;;12.00;6.80;;;3.20;17.10;;;;;;4913323;29;20417;-73
2022/03/09 04:05:21;;;;;;;10.47;6.90;;;3.20;17.70;;;;;;4912889;29;20533;-75
2022/03/09 04:07:47;;;;;;;12.57;6.83;;;3.10;17.50;;;;;;4913321;29;20440;-75
2022/03/09 04:10:13;;;;;;;11.05;6.65;;;3.20;17.70;;;;;;4913053;29;20491;-75
2022/03/09 04:12:39;;;;;;;9.45;6.80;;;3.10;17.30;;;;;;4895953;29;20413;-73
2022/03/09 04:15:06;;;;;;;11.10;7.18;;;3.10;17.60;;;;;;4913454;29;20515;-73
2022/03/09 04:17:45;;;;;;;11.23;6.80;;;3.20;18.10;;;;;;4912957;29;20443;-74
2022/03/09 04:20:12;;;;;;;11.55;6.78;;;3.10;17.70;;;;;;4913114;29;20409;-73
2022/03/09 04:22:38;;;;;;;12.57;7.32;;;3.10;17.90;;;;;;4913047;29;20428;-73
2022/03/09 04:25:05;;;;;;;13.93;6.90;;;3.10;17.80;;;;;;4913721;29;20852;-73
2022/03/09 04:27:30;;;;;;;11.77;6.63;;;3.10;18.50;;;;;;4912268;29;20467;-74
2022/03/09 04:29:56;;;;;;;14.05;6.72;;;3.10;18.00;;;;;;4913026;29;20413;-74
2022/03/09 04:32:22;;;;;;;12.43;7.45;;;3.10;17.80;;;;;;4912683;29;20424;-74
2022/03/09 04:34:47;;;;;;;12.70;6.50;;;3.00;17.60;;;;;;4913204;29;20440;-74
2022/03/09 04:37:13;;;;;;;13.13;7.40;;;3.10;17.90;;;;;;4912250;29;20452;-74
2022/03/09 04:39:38;;;;;;;11.37;6.43;;;3.00;17.10;;;;;;4911194;29;20783;-74
2022/03/09 04:42:04;;;;;;;12.60;6.70;;;3.00;17.40;;;;;;4912728;29;20421;-74
2022/03/09 04:44:30;;;;;;;11.05;6.90;;;3.00;17.50;;;;;;4912869;28;20778;-73
2022/03/09 04:46:55;;;;;;;12.60;6.85;;;3.00;18.70;;;;;;4912538;29;20802;-74
2022/03/09 04:49:21;;;;;;;11.80;7.13;;;2.90;18.10;;;;;;4913419;29;20425;-75
2022/03/09 04:51:46;;;;;;;12.80;7.13;;;2.90;18.80;;;;;;4912422;29;20413;-73
2022/03/09 04:54:12;;;;;;;12.63;7.70;;;2.90;18.80;;;;;;4912637;29;20421;-73
2022/03/09 04:56:37;;;;;;;11.18;6.60;;;2.90;18.60;;;;;;4911665;29;20491;-75
2022/03/09 04:59:03;;;;;;;13.70;7.53;;;3.00;18.80;;;;;;4912125;29;20913;-75
2022/03/09 05:01:29;;;;;;;12.43;6.72;;;3.00;17.70;;;;;;4912921;29;20406;-75
2022/03/09 05:03:55;;;;;;;12.57;6.77;;;3.00;18.50;;;;;;4912960;29;20463;-74
2022/03/09 05:06:20;;;;;;;11.95;7.20;;;3.10;18.80;;;;;;4912244;29;20429;-75
2022/03/09 05:08:46;;;;;;;14.10;7.72;;;3.10;19.50;;;;;;4912062;29;20716;-75
2022/03/09 05:11:11;;;;;;;13.48;6.90;;;3.10;18.50;;;;;;4912412;29;20397;-76
2022/03/09 05:13:37;;;;;;;11.65;6.43;;;3.10;17.80;;;;;;4911876;29;20768;-74
2022/03/09 05:16:05;;;;;;;15.77;7.30;;;3.10;17.70;;;;;;4912451;29;21014;-74
2022/03/09 05:18:31;;;;;;;11.52;6.57;;;3.00;17.50;;;;;;4914032;29;20412;-75
2022/03/09 05:20:57;;;;;;;9.88;7.20;;;3.00;17.40;;;;;;4911453;29;20512;-75
2022/03/09 05:23:22;;;;;;;14.10;7.23;;;3.10;17.60;;;;;;4917949;28;20524;-75
2022/03/09 05:25:48;;;;;;;13.82;6.60;;;3.10;17.30;;;;;;4915880;28;20461;-74
2022/03/09 05:28:13;;;;;;;11.05;7.40;;;3.10;17.30;;;;;;4910915;29;20412;-73
2022/03/09 05:30:39;;;;;;;13.18;7.50;;;3.10;17.90;;;;;;4910637;29;20465;-75
2022/03/09 05:33:04;;;;;;;12.48;7.28;;;3.10;17.50;;;;;;4912744;29;20417;-76
2022/03/09 05:35:30;;;;;;;12.85;7.13;;;3.10;17.50;;;;;;4912042;29;20475;-75
2022/03/09 05:37:55;;;;;;;13.90;7.30;;;3.10;18.00;;;;;;4913104;29;20421;-76
2022/03/09 05:40:21;;;;;;;15.13;7.40;;;3.30;18.70;;;;;;4918058;29;20401;-76
2022/03/09 05:42:47;;;;;;;12.40;7.50;;;3.20;17.30;;;;;;4915926;29;20413;-75
2022/03/09 05:45:12;;;;;;;10.43;6.80;;;3.20;17.20;;;;;;4912532;29;20413;-77
2022/03/09 05:47:38;;;;;;;12.13;7.20;;;3.10;17.70;;;;;;4911584;29;20417;-75
2022/03/09 05:50:04;;;;;;;11.98;7.72;;;3.10;18.10;;;;;;4912096;29;20468;-74
2022/03/09 05:52:29;;;;;;;11.20;6.60;;;3.10;17.40;;;;;;4911754;29;20518;-75
2022/03/09 05:54:55;;;;;;;11.13;7.10;;;3.00;17.50;;;;;;4909077;29;20417;-75
2022/03/09 05:57:21;;;;;;;11.50;7.43;;;3.00;18.70;;;;;;4910333;29;20425;-75
2022/03/09 05:59:47;;;;;;;13.57;7.22;;;2.90;17.80;;;;;;4907877;29;21118;-75
2022/03/09 06:02:13;;;;;;;11.05;7.30;;;2.90;18.40;;;;;;4912957;29;20405;-74
2022/03/09 06:04:39;;;;;;;18.45;8.10;;;2.90;17.80;;;;;;4909609;29;20551;-75
2022/03/09 06:07:05;;;;;;;17.55;8.95;;;3.00;18.10;;;;;;4910114;29;20501;-74
2022/03/09 06:09:30;;;;;;;13.57;7.18;;;3.00;18.00;;;;;;4910471;29;20572;-73
2022/03/09 06:11:56;;;;;;;11.13;7.50;;;3.10;17.70;;;;;;4892066;29;20479;-76
2022/03/09 06:14:22;;;;;;;12.50;6.95;;;3.00;17.30;;;;;;4909109;29;20417;-74
2022/03/09 06:16:48;;;;;;;17.33;8.43;;;3.00;18.20;;;;;;4899868;29;20415;-76
2022/03/09 06:19:14;;;;;;;17.13;8.10;;;3.00;18.00;;;;;;4917418;29;20409;-75
2022/03/09 06:21:40;;;;;;;23.85;8.20;;;3.00;18.80;;;;;;4915277;29;20401;-75
2022/03/09 06:24:06;;;;;;;14.50;7.70;;;3.10;18.10;;;;;;4912297;29;20933;-75
2022/03/09 06:26:31;;;;;;;14.40;8.20;;;3.10;17.80;;;;;;4913350;29;20559;-74
2022/03/09 06:28:57;;;;;;;21.17;8.20;;;3.10;17.90;;;;;;4910610;29;20397;-74
2022/03/09 06:31:23;;;;;;;13.37;7.93;;;3.10;18.10;;;;;;4911172;29;20409;-74
2022/03/09 06:33:48;;;;;;;19.40;7.72;;;3.20;17.40;;;;;;4894259;28;20406;-74
2022/03/09 06:36:15;;;;;;;11.35;7.10;;;3.30;18.10;;;;;;4912086;29;20409;-74
2022/03/09 06:38:40;;;;;;;16.20;7.70;;;3.40;18.20;;;;;;4894706;29;20846;-74
2022/03/09 06:41:06;;;;;;;19.47;7.87;;;3.50;17.00;;;;;;4914364;29;20410;-74
2022/03/09 06:43:31;;;;;;;11.77;7.73;;;3.50;16.70;;;;;;4919859;29;20409;-75
2022/03/09 06:45:57;;;;;;;17.40;7.80;;;3.50;17.50;;;;;;4915692;29;20556;-75
2022/03/09 06:48:23;;;;;;;28.00;8.17;;;3.60;16.80;;;;;;4918726;29;20401;-75
2022/03/09 06:50:48;;;;;;;14.10;7.80;;;3.60;16.50;;;;;;4924744;29;20411;-74
2022/03/09 06:53:14;;;;;;;28.25;8.52;;;3.80;16.60;;;;;;4905390;28;20531;-74
2022/03/09 06:55:39;;;;;;;15.18;8.05;;;3.80;16.70;;;;;;4891962;29;20441;-74
2022/03/09 06:58:05;;;;;;;17.27;8.40;;;3.80;16.10;;;;;;4893855;29;20494;-74
2022/03/09 07:00:31;;;;;;;12.53;8.00;;;3.80;16.10;;;;;;4893750;29;20438;-75
2022/03/09 07:02:57;;;;;;;13.47;7.50;;;3.80;16.00;;;;;;4910743;29;20896;-75
2022/03/09 07:05:23;;;;;;;15.82;8.40;;;3.90;16.20;;;;;;4911990;29;20412;-75
2022/03/09 07:07:49;;;;;;;23.20;7.72;;;4.00;15.80;;;;;;4910686;29;20447;-74
2022/03/09 07:10:15;;;;;;;17.23;8.23;;;4.00;16.50;;;;;;4911624;29;20461;-73
2022/03/09 07:12:42;;;;;;;12.23;8.30;;;4.10;15.60;;;;;;4912639;29;20409;-74
2022/03/09 07:15:08;;;;;;;16.05;7.82;;;4.20;16.50;;;;;;4913630;29;20428;-73
2022/03/09 07:17:34;;;;;;;13.70;8.10;;;4.30;15.40;;;;;;4910318;29;20415;-72
2022/03/09 07:20:00;;;;;;;17.20;8.63;;;4.40;15.40;;;;;;4910787;28;20866;-75
2022/03/09 07:22:26;;;;;;;16.60;8.70;;;4.50;15.30;;;;;;4913828;29;20801;-75
2022/03/09 07:24:51;;;;;;;14.98;7.60;;;4.60;15.60;;;;;;4913826;29;20417;-74
2022/03/09 07:27:17;;;;;;;15.65;9.48;;;4.70;15.50;;;;;;4911817;29;20416;-75
2022/03/09 07:29:42;;;;;;;25.83;8.52;;;4.70;14.80;;;;;;4913913;29;20413;-76
2022/03/09 07:32:14;;;;;;;16.80;8.68;;;4.80;15.30;;;;;;4914320;29;20504;-75
2022/03/09 07:34:42;;;;;;;18.73;8.40;;;4.90;15.10;;;;;;4895978;28;20439;-76
2022/03/09 07:37:08;;;;;;;16.52;8.10;;;4.90;14.70;;;;;;4913120;29;20412;-76
2022/03/09 07:39:35;;;;;;;14.10;7.80;;;5.10;14.70;;;;;;4913714;29;20401;-75
2022/03/09 07:42:01;;;;;;;16.20;8.80;;;5.20;15.10;;;;;;4894829;28;20521;-76
2022/03/09 07:44:27;;;;;;;16.58;8.50;;;5.30;13.40;;;;;;4913053;29;20413;-76
2022/03/09 07:46:53;;;;;;;15.70;8.63;;;5.40;14.40;;;;;;4911466;28;20902;-74
2022/03/09 07:49:19;;;;;;;13.18;7.55;;;5.50;13.40;;;;;;4913419;29;20480;-75
2022/03/09 07:51:45;;;;;;;17.35;8.10;;;5.60;13.30;;;;;;4913694;29;20451;-77
2022/03/09 07:54:11;;;;;;;15.60;7.95;;;5.70;13.00;;;;;;4911873;29;20425;-76
2022/03/09 07:56:37;;;;;;;14.38;8.70;;;5.80;12.50;;;;;;4916934;28;20468;-77
2022/03/09 07:59:05;;;;;;;19.15;9.00;;;5.90;12.80;;;;;;4898016;28;20456;-76
2022/03/09 08:01:30;;;;;;;17.35;8.50;;;6.00;12.80;;;;;;4912610;29;20405;-74
2022/03/09 08:03:56;;;;;;;13.73;8.40;;;6.00;12.70;;;;;;4915331;29;20482;-75
2022/03/09 08:06:21;;;;;;;16.05;9.13;;;6.20;12.10;;;;;;4911378;29;20441;-76
2022/03/09 08:08:47;;;;;;;13.68;8.63;;;6.30;11.80;;;;;;4914849;29;20402;-75
2022/03/09 08:11:13;;;;;;;13.25;7.60;;;6.40;11.70;;;;;;4923221;28;20420;-75
2022/03/09 08:13:39;;;;;;;15.05;8.85;;;6.50;12.30;;;;;;4928748;29;20386;-75
2022/03/09 08:16:05;;;;;;;16.77;8.20;;;6.50;11.30;;;;;;4919468;28;20475;-76
2022/03/09 08:18:30;;;;;;;15.25;8.85;;;6.60;11.70;;;;;;4916088;29;20487;-75
2022/03/09 08:20:56;;;;;;;18.05;8.23;;;6.80;13.40;;;;;;4913932;29;20559;-75
2022/03/09 08:23:23;;;;;;;12.40;8.20;;;6.90;10.90;;;;;;4912176;29;20496;-76
2022/03/09 08:25:49;;;;;;;24.48;9.00;;;6.80;10.20;;;;;;4914788;29;20778;-76
2022/03/09 08:28:15;;;;;;;13.70;8.40;;;6.90;10.80;;;;;;4964832;28;20429;-76
2022/03/09 08:30:41;;;;;;;13.43;7.80;;;7.10;10.70;;;;;;4916705;29;20419;-76
2022/03/09 08:33:07;;;;;;;15.60;8.67;;;7.20;10.20;;;;;;4914819;29;20830;-76
2022/03/09 08:35:33;;;;;;;15.25;8.32;;;7.40;9.10;;;;;;4921334;29;20433;-75
2022/03/09 08:37:58;;;;;;;18.50;8.38;;;7.50;9.80;;;;;;4917423;29;20728;-76
2022/03/09 08:40:24;;;;;;;13.90;8.38;;;7.40;8.80;;;;;;4912232;28;20748;-76
2022/03/09 08:42:50;;;;;;;16.20;9.18;;;7.50;10.90;;;;;;4917525;28;20485;-76
2022/03/09 08:45:15;;;;;;;14.97;9.27;;;7.60;10.80;;;;;;4918354;29;20413;-76
2022/03/09 08:47:41;;;;;;;20.83;9.27;;;7.70;9.10;;;;;;4914430;29;20413;-76
2022/03/09 08:50:08;;;;;;;16.40;8.60;;;7.80;8.90;;;;;;4917484;29;20421;-75
2022/03/09 08:52:34;;;;;;;14.30;8.50;;;7.90;9.10;;;;;;4913546;28;20480;-75
2022/03/09 08:54:59;;;;;;;15.07;8.32;;;7.90;8.40;;;;;;4921519;28;20421;-76
2022/03/09 08:57:25;;;;;;;19.05;9.20;;;8.00;9.10;;;;;;4917011;29;20408;-77
2022/03/09 08:59:50;;;;;;;15.75;9.13;;;8.00;7.90;;;;;;4901697;28;20418;-77
2022/03/09 09:02:16;;;;;;;15.70;9.25;;;8.00;8.20;;;;;;4921951;29;20457;-76
2022/03/09 09:04:42;;;;;;;14.75;8.50;;;8.20;8.30;;;;;;4921441;29;20408;-77
2022/03/09 09:07:08;;;;;;;25.15;10.00;;;8.30;7.70;;;;;;4919055;29;20417;-76
2022/03/09 09:09:33;;;;;;;15.93;8.90;;;8.30;7.50;;;;;;4916115;28;20418;-74
2022/03/09 09:12:01;;;;;;;18.95;9.82;;;8.40;8.10;;;;;;4911619;29;20416;-75
2022/03/09 09:14:27;;;;;;;12.95;9.10;;;8.50;8.10;;;;;;4914330;29;20476;-75
2022/03/09 09:16:52;;;;;;;18.40;9.95;;;8.50;6.70;;;;;;4902549;29;20512;-75
2022/03/09 09:19:18;;;;;;;16.60;9.15;;;8.50;7.00;;;;;;4913534;29;20506;-76
2022/03/09 09:21:44;;;;;;;15.75;9.30;;;8.60;7.60;;;;;;4911220;29;20424;-75
2022/03/09 09:24:10;;;;;;;15.55;9.50;;;8.70;6.40;;;;;;4911741;29;20416;-74
2022/03/09 09:26:36;;;;;;;20.00;9.80;;;8.70;7.30;;;;;;4914119;29;20773;-74
2022/03/09 09:29:02;;;;;;;15.27;9.15;;;8.80;9.10;;;;;;4920284;28;20457;-74
2022/03/09 09:31:27;;;;;;;17.30;10.15;;;8.90;6.90;;;;;;4911024;28;20401;-73
2022/03/09 09:33:53;;;;;;;20.07;9.80;;;9.00;6.40;;;;;;4910790;28;20445;-73
2022/03/09 09:36:18;;;;;;;21.00;9.43;;;9.00;6.20;;;;;;4913282;29;20510;-74
2022/03/09 09:38:44;;;;;;;17.00;10.38;;;9.20;5.60;;;;;;4912688;29;20417;-74
2022/03/09 09:41:16;;;;;;;20.10;10.00;;;9.20;6.30;;;;;;4916428;29;20900;-73
2022/03/09 09:43:42;;;;;;;15.60;9.57;;;9.30;5.80;;;;;;4893122;29;20861;-74
2022/03/09 09:46:10;;;;;;;17.75;10.50;;;9.30;6.80;;;;;;4912138;29;20479;-74
2022/03/09 09:48:36;;;;;;;16.30;10.40;;;9.10;6.10;;;;;;4912004;28;20438;-73
2022/03/09 09:51:02;;;;;;;16.87;10.13;;;9.10;6.60;;;;;;4930414;28;20410;-74
2022/03/09 09:53:30;;;;;;;16.60;9.90;;;9.20;6.10;;;;;;4897875;28;20416;-74
2022/03/09 09:55:58;;;;;;;16.58;9.82;;;9.20;6.30;;;;;;4910230;29;20429;-73
2022/03/09 09:58:24;;;;;;;19.33;10.90;;;9.40;5.40;;;;;;4910770;29;20517;-73
2022/03/09 10:00:49;;;;;;;29.90;10.27;;;9.40;5.40;;;;;;4910107;29;20576;-73
2022/03/09 10:03:15;;;;;;;21.87;10.40;;;9.50;5.60;;;;;;4909933;29;20401;-74
2022/03/09 10:05:41;;;;;;;16.70;10.50;;;9.60;4.80;;;;;;4913428;29;20428;-73
2022/03/09 10:08:08;;;;;;;16.27;9.97;;;9.70;5.10;;;;;;4914504;29;20492;-73
2022/03/09 10:10:39;;;;;;;19.45;10.82;;;9.70;5.80;;;;;;4913468;29;20413;-73
2022/03/09 10:13:16;;;;;;;15.83;10.30;;;9.80;5.10;;;;;;4910264;29;20409;-73
2022/03/09 10:15:44;;;;;;;19.08;11.02;;;9.80;4.70;;;;;;4915248;29;22304;-74
2022/03/09 10:18:18;;;;;;;18.80;10.80;;;9.90;4.90;;;;;;4911882;29;20794;-76
2022/03/09 10:20:46;;;;;;;17.63;11.40;;;10.00;5.60;;;;;;4912815;29;20896;-76
2022/03/09 10:23:12;;;;;;;21.00;12.07;;;10.10;5.00;;;;;;4913077;28;20425;-75
2022/03/09 10:25:40;;;;;;;17.85;11.00;;;10.00;4.60;;;;;;4908028;29;20413;-74
2022/03/09 10:28:08;;;;;;;19.27;11.73;;;10.00;6.40;;;;;;4907044;28;20409;-75
2022/03/09 10:30:36;;;;;;;20.92;11.35;;;10.10;4.60;;;;;;4910910;29;20854;-75
2022/03/09 10:33:07;;;;;;;18.43;11.40;;;10.20;4.40;;;;;;4911152;29;20405;-74
2022/03/09 10:35:33;;;;;;;17.10;11.80;;;10.30;4.50;;;;;;4908785;29;20417;-75
2022/03/09 10:38:01;;;;;;;19.95;11.30;;;10.50;4.50;;;;;;4910834;29;20498;-74
2022/03/09 10:40:28;;;;;;;18.95;11.10;;;10.60;4.50;;;;;;4910618;29;20410;-75
2022/03/09 10:43:13;;;;;;;17.83;11.70;;;10.60;3.90;;;;;;4911213;29;20843;-75
2022/03/09 10:46:03;;;;;;;21.15;11.65;;;10.60;3.90;;;;;;4922669;28;20413;-74
2022/03/09 10:48:57;;;;;;;20.92;12.23;;;10.70;3.30;;;;;;4928841;28;20429;-76
2022/03/09 10:51:46;;;;;;;20.83;12.13;;;10.70;3.40;;;;;;4912871;29;20909;-75
2022/03/09 10:54:24;;;;;;;22.67;12.25;;;10.80;3.10;;;;;;4914239;29;20409;-74
2022/03/09 10:57:01;;;;;;;20.35;12.00;;;10.80;3.70;;;;;;4912789;29;20409;-75
2022/03/09 10:59:27;;;;;;;24.55;12.88;;;10.80;3.90;;;;;;4930608;28;20766;-75
2022/03/09 11:02:11;;;;;;;28.35;12.57;;;10.80;3.40;;;;;;4917543;29;20467;-75
2022/03/09 11:04:38;;;;;;;20.48;11.95;;;10.90;5.30;;;;;;4932399;28;20513;-76
2022/03/09 11:07:04;;;;;;;18.77;12.45;;;11.00;3.80;;;;;;4915344;29;20420;-76
2022/03/09 11:09:30;;;;;;;26.02;13.38;;;11.10;4.10;;;;;;4914642;29;20930;-76
2022/03/09 11:11:57;;;;;;;23.80;12.50;;;11.20;3.10;;;;;;4915745;29;20413;-76
2022/03/09 11:14:26;;;;;;;21.50;12.60;;;11.20;3.10;;;;;;4914840;29;20570;-76
2022/03/09 11:16:54;;;;;;;19.20;12.23;;;11.20;2.00;;;;;;4914721;29;20405;-75
2022/03/09 11:19:20;;;;;;;31.33;12.63;;;11.20;2.10;;;;;;4913990;29;20412;-75
2022/03/09 11:21:47;;;;;;;23.63;12.32;;;11.20;3.00;;;;;;4912978;29;20492;-76
2022/03/09 11:24:14;;;;;;;17.80;11.75;;;11.40;3.20;;;;;;4918339;28;20404;-74
2022/03/09 11:26:44;;;;;;;20.10;11.90;;;11.50;3.20;;;;;;4913535;29;20406;-74
2022/03/09 11:29:12;;;;;;;22.38;13.23;;;11.40;2.40;;;;;;4911073;28;20414;-75
2022/03/09 11:31:52;;;;;;;26.65;12.85;;;11.60;1.80;;;;;;4913796;28;20493;-75
2022/03/09 11:34:46;;;;;;;20.70;13.40;;;11.60;2.40;;;;;;4911380;29;20421;-75
2022/03/09 11:37:16;;;;;;;26.35;13.10;;;11.60;2.00;;;;;;4913686;29;20496;-78
2022/03/09 11:40:06;;;;;;;20.67;13.27;;;11.60;1.60;;;;;;4912556;29;20416;-75
2022/03/09 11:42:34;;;;;;;25.20;13.00;;;11.70;2.70;;;;;;4918548;29;20417;-76
2022/03/09 11:45:27;;;;;;;24.40;13.63;;;11.90;1.40;;;;;;4915038;29;20576;-75
2022/03/09 11:48:09;;;;;;;23.13;13.90;;;11.90;1.00;;;;;;4910640;28;20909;-74
2022/03/09 11:50:46;;;;;;;22.98;13.50;;;11.90;1.70;;;;;;4919771;28;20421;-75
2022/03/09 11:53:15;;;;;;;24.08;13.10;;;11.80;1.00;;;;;;4911866;29;20774;-74
2022/03/09 11:55:41;;;;;;;19.25;12.77;;;11.80;1.00;;;;;;4912054;29;20475;-75
2022/03/09 11:58:07;;;;;;;22.92;13.52;;;12.00;1.00;;;;;;4913521;29;20410;-74
2022/03/09 12:00:34;;;;;;;22.17;13.35;;;12.10;1.90;;;;;;4947379;28;20420;-73
2022/03/09 12:03:00;;;;;;;20.05;13.35;;;12.10;1.00;;;;;;4933671;28;20818;-73
2022/03/09 12:05:25;;;;;;;24.17;13.82;;;12.10;1.50;;;;;;4930916;29;20413;-74
2022/03/09 12:07:55;;;;;;;29.73;14.32;;;12.30;1.40;;;;;;4934496;28;20402;-73
2022/03/09 12:10:42;;;;;;;24.92;13.75;;;12.30;1.10;;;;;;4935304;28;20420;-77
2022/03/09 12:13:08;;;;;;;22.58;13.40;;;12.40;1.00;;;;;;4937883;28;20410;-77
2022/03/09 12:16:17;;;;;;;21.15;13.85;;;12.50;1.00;;;;;;4923248;28;20526;-75
2022/03/09 12:19:00;;;;;;;25.77;13.70;;;12.40;1.00;;;;;;4902159;28;20412;-75
2022/03/09 12:21:26;;;;;;;22.55;13.65;;;12.40;1.20;;;;;;4911575;29;20452;-76
2022/03/09 12:24:13;;;;;;;22.17;13.63;;;12.40;1.00;;;;;;4912153;29;20409;-75
2022/03/09 12:26:46;;;;;;;23.15;13.95;;;12.60;1.00;;;;;;4910205;28;20519;-75
2022/03/09 12:29:37;;;;;;;22.20;14.07;;;12.60;1.00;;;;;;4913925;29;20871;-75
2022/03/09 12:32:07;;;;;;;23.00;13.40;;;12.50;1.00;;;;;;4911636;29;20479;-75
2022/03/09 12:34:44;;;;;;;24.00;13.93;;;12.50;1.00;;;;;;4910921;28;20433;-74
2022/03/09 12:37:16;;;;;;;20.75;13.30;;;12.50;1.00;;;;;;4911456;29;20688;-74
2022/03/09 12:39:54;;;;;;;23.40;14.43;;;12.80;1.00;;;;;;4915284;29;20464;-75
2022/03/09 12:42:19;;;;;;;24.13;14.50;;;12.70;1.00;;;;;;4914709;29;20457;-74
2022/03/09 12:44:46;;;;;;;92.27;55.83;;;12.70;1.00;;;;;;4913879;29;20890;-76
2022/03/09 12:47:12;;;;;;;23.27;13.98;;;12.70;1.00;;;;;;4916134;28;20421;-74
2022/03/09 12:49:39;;;;;;;21.52;13.30;;;12.80;1.00;;;;;;4925243;29;20457;-76